createdAt,value
2017-08-31T00:01:29.249Z,18.40
2017-08-31T00:06:15.874Z,18.10
2017-08-31T00:11:02.766Z,18.00
2017-08-31T00:15:49.421Z,17.90
2017-08-31T00:20:36.092Z,18.10
2017-08-31T00:25:22.844Z,18.20
2017-08-31T00:30:09.534Z,18.10
2017-08-31T00:34:56.176Z,18.20
2017-08-31T00:39:43.072Z,18.00
2017-08-31T00:44:29.676Z,18.10
2017-08-31T00:49:16.290Z,18.00
2017-08-31T00:54:02.902Z,18.00
2017-08-31T00:58:49.528Z,18.00
2017-08-31T01:03:36.528Z,18.00
2017-08-31T01:08:23.133Z,17.90
2017-08-31T01:13:09.891Z,17.90
2017-08-31T01:17:56.975Z,17.90
2017-08-31T01:22:43.577Z,18.00
2017-08-31T01:27:30.548Z,18.20
2017-08-31T01:32:17.212Z,18.20
2017-08-31T01:37:04.191Z,18.40
2017-08-31T01:41:50.844Z,18.40
2017-08-31T01:46:37.858Z,18.60
2017-08-31T01:51:24.492Z,18.60
2017-08-31T01:56:11.121Z,18.60
2017-08-31T02:00:57.922Z,18.60
2017-08-31T02:05:44.794Z,18.70
2017-08-31T02:10:31.872Z,18.80
2017-08-31T02:15:18.636Z,19.00
2017-08-31T02:20:05.409Z,19.10
2017-08-31T02:24:52.248Z,19.30
2017-08-31T02:29:38.977Z,19.50
2017-08-31T02:34:26.017Z,19.80
2017-08-31T02:39:13.095Z,20.00
2017-08-31T02:43:59.712Z,20.10
2017-08-31T02:48:46.353Z,20.10
2017-08-31T02:53:32.964Z,20.10
2017-08-31T02:58:19.567Z,20.00
2017-08-31T03:03:06.669Z,20.00
2017-08-31T03:07:53.268Z,20.10
2017-08-31T03:12:39.968Z,20.20
2017-08-31T03:17:33.662Z,20.10
2017-08-31T03:22:20.479Z,20.10
2017-08-31T03:27:07.546Z,20.10
2017-08-31T03:31:54.562Z,20.10
2017-08-31T03:36:41.177Z,20.10
2017-08-31T03:41:27.817Z,20.20
2017-08-31T03:46:14.445Z,20.20
2017-08-31T03:51:01.264Z,20.30
2017-08-31T03:55:48.965Z,20.30
2017-08-31T04:00:35.575Z,20.30
2017-08-31T04:05:22.181Z,20.40
2017-08-31T04:10:08.849Z,20.40
2017-08-31T04:14:55.532Z,20.40
2017-08-31T04:19:42.682Z,20.20
2017-08-31T04:24:29.356Z,20.10
2017-08-31T04:29:16.000Z,20.00
2017-08-31T04:34:02.981Z,19.90
2017-08-31T04:38:49.613Z,19.90
2017-08-31T04:43:37.438Z,19.70
2017-08-31T04:48:24.044Z,19.60
2017-08-31T04:53:10.965Z,19.60
2017-08-31T04:57:57.579Z,19.50
2017-08-31T05:02:44.181Z,19.40
2017-08-31T05:07:30.928Z,19.40
2017-08-31T05:12:18.009Z,19.30
2017-08-31T05:17:04.693Z,19.30
2017-08-31T05:21:51.496Z,19.20
2017-08-31T05:26:38.194Z,19.30
2017-08-31T05:31:24.951Z,19.30
2017-08-31T05:36:11.627Z,19.50
2017-08-31T05:40:58.412Z,19.50
2017-08-31T05:45:45.296Z,19.60
2017-08-31T05:50:31.883Z,19.80
2017-08-31T05:55:18.557Z,19.90
2017-08-31T06:00:05.190Z,19.90
2017-08-31T06:04:52.115Z,20.10
2017-08-31T06:09:38.745Z,20.30
2017-08-31T06:14:25.384Z,20.40
2017-08-31T06:19:12.035Z,20.60
2017-08-31T06:23:58.640Z,20.80
2017-08-31T06:28:45.261Z,20.90
2017-08-31T06:33:32.612Z,21.00
2017-08-31T06:38:19.253Z,21.10
2017-08-31T06:43:05.941Z,21.30
2017-08-31T06:47:52.592Z,21.60
2017-08-31T06:52:39.648Z,21.80
2017-08-31T06:57:26.362Z,22.00
2017-08-31T07:02:13.054Z,22.20
2017-08-31T07:06:59.753Z,22.40
2017-08-31T07:11:46.359Z,22.60
2017-08-31T07:16:33.190Z,22.80
2017-08-31T07:21:19.839Z,23.00
2017-08-31T07:26:06.474Z,23.10
2017-08-31T07:30:53.218Z,23.30
2017-08-31T07:35:40.168Z,23.40
2017-08-31T07:40:27.272Z,23.60
2017-08-31T07:45:13.896Z,23.70
2017-08-31T07:50:00.493Z,23.80
2017-08-31T07:54:47.115Z,24.00
2017-08-31T07:59:33.766Z,24.20
2017-08-31T08:04:20.379Z,24.30
2017-08-31T08:09:07.296Z,24.60
2017-08-31T08:13:54.019Z,24.70
2017-08-31T08:18:40.737Z,24.80
2017-08-31T08:23:27.358Z,25.50
2017-08-31T08:28:14.037Z,25.90
2017-08-31T08:33:00.703Z,26.70
2017-08-31T08:37:47.425Z,27.50
2017-08-31T08:42:34.260Z,27.80
2017-08-31T08:47:20.878Z,28.40
2017-08-31T08:52:07.810Z,28.70
2017-08-31T08:56:55.248Z,28.20
2017-08-31T09:01:41.847Z,28.40
2017-08-31T09:06:28.469Z,28.50
2017-08-31T09:11:15.088Z,29.40
2017-08-31T09:16:02.001Z,29.60
2017-08-31T09:20:48.653Z,28.90
2017-08-31T09:25:35.274Z,28.40
2017-08-31T09:30:22.199Z,28.20
2017-08-31T09:35:08.961Z,28.10
2017-08-31T09:39:55.633Z,28.40
2017-08-31T09:44:42.269Z,29.50
2017-08-31T09:49:29.186Z,29.60
2017-08-31T09:54:15.792Z,29.60
2017-08-31T09:59:02.434Z,30.00
2017-08-31T10:03:49.044Z,29.90
2017-08-31T10:08:35.770Z,30.00
2017-08-31T10:13:22.413Z,30.40
2017-08-31T10:18:09.389Z,30.30
2017-08-31T10:22:56.001Z,30.10
2017-08-31T10:27:42.609Z,29.90
2017-08-31T10:32:29.380Z,29.80
2017-08-31T10:37:16.020Z,29.30
2017-08-31T10:42:02.646Z,29.00
2017-08-31T10:46:49.862Z,28.90
2017-08-31T10:51:36.482Z,28.80
2017-08-31T10:56:23.088Z,28.50
2017-08-31T11:01:10.695Z,28.80
2017-08-31T11:05:57.398Z,29.20
2017-08-31T11:10:44.894Z,29.90
2017-08-31T11:15:31.941Z,29.80
2017-08-31T11:20:18.532Z,30.40
2017-08-31T11:25:05.245Z,30.50
2017-08-31T11:29:52.225Z,30.80
2017-08-31T11:34:38.813Z,29.70
2017-08-31T11:39:25.421Z,28.60
2017-08-31T11:44:12.460Z,27.80
2017-08-31T11:48:59.184Z,27.20
2017-08-31T11:53:46.068Z,26.90
2017-08-31T11:58:32.704Z,26.50
2017-08-31T12:03:19.657Z,26.10
2017-08-31T12:08:06.285Z,25.70
2017-08-31T12:12:52.911Z,25.40
2017-08-31T12:17:39.943Z,25.20
2017-08-31T12:22:26.581Z,25.00
2017-08-31T12:27:13.205Z,24.70
2017-08-31T12:31:59.831Z,24.60
2017-08-31T12:36:46.495Z,24.60
2017-08-31T12:41:33.110Z,24.60
2017-08-31T12:46:19.726Z,24.60
2017-08-31T12:51:06.411Z,24.60
2017-08-31T12:55:53.020Z,24.40
2017-08-31T13:00:39.633Z,24.00
2017-08-31T13:05:26.558Z,23.80
2017-08-31T13:10:13.173Z,23.60
2017-08-31T13:14:59.791Z,23.50
2017-08-31T13:19:46.425Z,23.40
2017-08-31T13:24:33.053Z,23.40
2017-08-31T13:29:20.010Z,23.50
2017-08-31T13:34:06.618Z,23.60
2017-08-31T13:38:53.271Z,23.40
2017-08-31T13:43:39.906Z,23.20
2017-08-31T13:48:26.627Z,23.00
2017-08-31T13:53:13.269Z,22.70
2017-08-31T13:58:00.387Z,22.50
2017-08-31T14:02:47.188Z,22.40
2017-08-31T14:07:33.858Z,22.40
2017-08-31T14:12:20.661Z,22.40
2017-08-31T14:17:07.696Z,22.30
2017-08-31T14:21:54.345Z,22.30
2017-08-31T14:26:40.986Z,22.30
2017-08-31T14:31:27.605Z,22.10
2017-08-31T14:36:14.234Z,21.80
2017-08-31T14:41:00.845Z,21.50
2017-08-31T14:45:47.471Z,21.40
2017-08-31T14:50:34.079Z,21.30
2017-08-31T14:55:21.788Z,21.20
2017-08-31T15:00:08.426Z,21.10
2017-08-31T15:04:55.220Z,21.10
2017-08-31T15:09:42.244Z,21.10
2017-08-31T15:14:28.965Z,21.00
2017-08-31T15:19:15.596Z,21.00
2017-08-31T15:24:02.240Z,20.90
2017-08-31T15:28:48.843Z,20.90
2017-08-31T15:33:35.493Z,20.80
2017-08-31T15:38:22.569Z,20.80
2017-08-31T15:43:09.162Z,20.90
2017-08-31T15:47:55.772Z,20.90
2017-08-31T15:52:42.394Z,20.90
2017-08-31T15:57:29.372Z,20.90
2017-08-31T16:02:16.310Z,20.90
2017-08-31T16:07:02.951Z,21.00
2017-08-31T16:11:50.336Z,20.60
2017-08-31T16:16:36.998Z,20.60
2017-08-31T16:21:23.660Z,20.40
2017-08-31T16:26:10.646Z,20.20
2017-08-31T16:30:57.333Z,19.90
2017-08-31T16:35:43.978Z,19.60
2017-08-31T16:40:30.657Z,19.30
2017-08-31T16:45:17.397Z,19.20
2017-08-31T16:50:04.331Z,19.10
2017-08-31T16:54:51.046Z,18.80
2017-08-31T16:59:37.685Z,18.70
2017-08-31T17:04:24.388Z,18.60
2017-08-31T17:09:11.067Z,18.60
2017-08-31T17:13:57.731Z,18.40
2017-08-31T17:18:44.820Z,18.30
2017-08-31T17:23:31.619Z,18.20
2017-08-31T17:28:18.370Z,18.10
2017-08-31T17:33:05.106Z,17.90
2017-08-31T17:37:51.863Z,17.60
2017-08-31T17:42:38.550Z,17.20
2017-08-31T17:47:25.660Z,16.90
2017-08-31T17:52:12.448Z,16.70
2017-08-31T17:56:59.136Z,16.50
2017-08-31T18:01:45.844Z,16.30
2017-08-31T18:06:32.511Z,16.20
2017-08-31T18:11:19.660Z,16.00
2017-08-31T18:16:07.155Z,16.00
2017-08-31T18:20:53.957Z,16.00
2017-08-31T18:25:40.841Z,16.00
2017-08-31T18:30:27.644Z,16.00
2017-08-31T18:35:14.396Z,15.90
2017-08-31T18:40:01.143Z,16.00
2017-08-31T18:44:48.280Z,16.00
2017-08-31T18:49:35.044Z,16.00
2017-08-31T18:54:21.792Z,16.00
2017-08-31T18:59:08.551Z,16.00
2017-08-31T19:03:55.331Z,16.00
2017-08-31T19:08:42.056Z,16.00
2017-08-31T19:13:29.106Z,16.00
2017-08-31T19:18:15.871Z,15.90
2017-08-31T19:23:02.715Z,16.00
2017-08-31T19:27:50.010Z,16.00
2017-08-31T19:32:36.776Z,16.00
2017-08-31T19:37:23.676Z,16.10
2017-08-31T19:42:10.831Z,16.10
2017-08-31T19:46:57.554Z,16.00
2017-08-31T19:51:44.334Z,16.00
2017-08-31T19:56:31.079Z,16.20
2017-08-31T20:01:17.933Z,16.20
2017-08-31T20:06:04.751Z,16.10
2017-08-31T20:10:52.037Z,16.00
2017-08-31T20:15:38.743Z,16.20
2017-08-31T20:20:26.218Z,16.10
2017-08-31T20:25:13.026Z,16.10
2017-08-31T20:30:00.001Z,16.20
2017-08-31T20:34:46.651Z,16.20
2017-08-31T20:39:33.678Z,16.20
2017-08-31T20:44:20.388Z,16.20
2017-08-31T20:49:07.108Z,16.10
2017-08-31T20:53:53.720Z,16.10
2017-08-31T20:58:40.345Z,16.30
2017-08-31T21:03:26.993Z,16.30
2017-08-31T21:08:13.641Z,16.30
2017-08-31T21:13:00.271Z,16.20
2017-08-31T21:17:46.888Z,16.30
2017-08-31T21:22:33.520Z,16.30
2017-08-31T21:27:20.128Z,16.20
2017-08-31T21:32:06.878Z,16.20
2017-08-31T21:36:53.506Z,16.20
2017-08-31T21:41:40.093Z,16.20
2017-08-31T21:46:27.146Z,16.10
2017-08-31T21:51:13.746Z,16.00
2017-08-31T21:56:00.388Z,16.10
2017-08-31T22:00:47.005Z,16.20
2017-08-31T22:05:33.936Z,16.10
2017-08-31T22:10:20.532Z,16.00
2017-08-31T22:15:07.160Z,16.00
2017-08-31T22:19:53.784Z,16.00
2017-08-31T22:24:40.537Z,16.00
2017-08-31T22:29:27.130Z,16.00
2017-08-31T22:34:13.744Z,16.10
2017-08-31T22:39:00.350Z,16.00
2017-08-31T22:43:46.985Z,15.80
2017-08-31T22:48:33.615Z,15.50
2017-08-31T22:53:20.242Z,15.70
2017-08-31T22:58:15.148Z,15.80
2017-08-31T23:03:02.051Z,15.70
2017-08-31T23:07:48.683Z,15.80
2017-08-31T23:12:35.361Z,15.70
2017-08-31T23:17:22.238Z,15.70
2017-08-31T23:22:08.959Z,15.70
2017-08-31T23:26:55.603Z,15.80
2017-08-31T23:31:42.324Z,15.70
2017-08-31T23:36:28.921Z,15.60
2017-08-31T23:41:15.865Z,15.60
2017-08-31T23:46:02.502Z,15.60
2017-08-31T23:50:49.117Z,15.60
2017-08-31T23:55:35.727Z,15.50
